N74MA SCAR-SAME
Flight info
| Callsign | N74MA |
|---|---|
| Flight time | 3h 8m |
| Altitude | 25000 |
| Route | LOBAG5L LOBAG UQ803 NIRNU UL416 JUA UW3 MEBRA MEBRA2U |
| Aircraft | TBM8/L-SDFGHIRWZ/SB2 |
Departure
| Time | 2026-04-21 22:28 |
|---|---|
| Airport | Chacalluta International Airport (SCAR) |
Arrival
| Time | 2026-04-22 01:37 |
|---|---|
| Airport | Governor Francisco Gabrielli International Airport (SAME) |
| Time | Latitude | Longitude | Altitude | Speed | Heading |
|---|---|---|---|---|---|
| 2026-04-21 22:05 | -18.35001 | -70.33669 | 150 ft | 0 kts | 108° |
| 2026-04-21 22:24 | -18.35009 | -70.33664 | 150 ft | 5 kts | 189° |
| 2026-04-21 22:24 | -18.34977 | -70.33728 | 150 ft | 18 kts | 339° |
| 2026-04-21 22:24 | -18.34870 | -70.33705 | 149 ft | 14 kts | 19° |
| 2026-04-21 22:25 | -18.34767 | -70.33668 | 150 ft | 19 kts | 21° |
| 2026-04-21 22:25 | -18.34625 | -70.33614 | 153 ft | 24 kts | 19° |
| 2026-04-21 22:25 | -18.34456 | -70.33551 | 157 ft | 27 kts | 19° |
| 2026-04-21 22:25 | -18.34272 | -70.33483 | 162 ft | 25 kts | 18° |
| 2026-04-21 22:26 | -18.34180 | -70.33449 | 165 ft | 18 kts | 18° |
| 2026-04-21 22:26 | -18.34069 | -70.33408 | 168 ft | 17 kts | 8° |
| 2026-04-21 22:26 | -18.33976 | -70.33445 | 169 ft | 14 kts | 310° |
| 2026-04-21 22:26 | -18.33959 | -70.33482 | 169 ft | 8 kts | 289° |
| 2026-04-21 22:27 | -18.33953 | -70.33499 | 169 ft | 10 kts | 288° |
| 2026-04-21 22:27 | -18.33970 | -70.33555 | 168 ft | 7 kts | 199° |
| 2026-04-21 22:27 | -18.34008 | -70.33569 | 168 ft | 0 kts | 199° |
| 2026-04-21 22:27 | -18.34112 | -70.33606 | 165 ft | 42 kts | 200° |
| 2026-04-21 22:28 | -18.34561 | -70.33770 | 150 ft | 93 kts | 199° |
| 2026-04-21 22:28 | -18.35254 | -70.34023 | 272 ft | 117 kts | 202° |
| 2026-04-21 22:28 | -18.36092 | -70.34329 | 573 ft | 129 kts | 202° |
| 2026-04-21 22:28 | -18.36956 | -70.34434 | 1099 ft | 126 kts | 175° |
| 2026-04-21 22:29 | -18.37837 | -70.34334 | 1560 ft | 128 kts | 181° |
| 2026-04-21 22:29 | -18.38724 | -70.34273 | 2045 ft | 127 kts | 177° |
| 2026-04-21 22:29 | -18.39625 | -70.34206 | 2455 ft | 132 kts | 178° |
| 2026-04-21 22:29 | -18.40549 | -70.34137 | 2894 ft | 134 kts | 178° |
| 2026-04-21 22:30 | -18.41483 | -70.34065 | 3345 ft | 136 kts | 177° |
| 2026-04-21 22:30 | -18.42432 | -70.33993 | 3791 ft | 138 kts | 177° |
| 2026-04-21 22:30 | -18.43395 | -70.33923 | 4241 ft | 139 kts | 177° |
| 2026-04-21 22:30 | -18.44369 | -70.33850 | 4689 ft | 141 kts | 177° |
| 2026-04-21 22:31 | -18.45344 | -70.33778 | 5116 ft | 143 kts | 176° |
| 2026-04-21 22:31 | -18.46339 | -70.33703 | 5559 ft | 143 kts | 176° |
| 2026-04-21 22:31 | -18.47339 | -70.33627 | 5997 ft | 144 kts | 176° |
| 2026-04-21 22:31 | -18.48341 | -70.33553 | 6435 ft | 145 kts | 176° |
| 2026-04-21 22:32 | -18.49352 | -70.33476 | 6849 ft | 145 kts | 176° |
| 2026-04-21 22:32 | -18.50360 | -70.33400 | 7264 ft | 145 kts | 176° |
| 2026-04-21 22:32 | -18.51366 | -70.33325 | 7682 ft | 145 kts | 176° |
| 2026-04-21 22:32 | -18.52377 | -70.33249 | 8097 ft | 145 kts | 176° |
| 2026-04-21 22:33 | -18.53386 | -70.33173 | 8515 ft | 145 kts | 176° |
| 2026-04-21 22:33 | -18.54393 | -70.33096 | 8938 ft | 145 kts | 176° |
| 2026-04-21 22:33 | -18.55402 | -70.33018 | 9371 ft | 145 kts | 176° |
| 2026-04-21 22:33 | -18.56410 | -70.32944 | 9785 ft | 146 kts | 176° |
| 2026-04-21 22:34 | -18.57430 | -70.32869 | 10169 ft | 147 kts | 176° |
| 2026-04-21 22:34 | -18.58451 | -70.32793 | 10535 ft | 147 kts | 176° |
| 2026-04-21 22:34 | -18.59472 | -70.32649 | 10894 ft | 148 kts | 172° |
| 2026-04-21 22:34 | -18.60498 | -70.32508 | 11256 ft | 149 kts | 173° |
| 2026-04-21 22:35 | -18.61532 | -70.32365 | 11610 ft | 150 kts | 173° |
| 2026-04-21 22:35 | -18.62572 | -70.32220 | 11988 ft | 151 kts | 173° |
| 2026-04-21 22:35 | -18.63601 | -70.32074 | 12342 ft | 152 kts | 173° |
| 2026-04-21 22:35 | -18.64664 | -70.31923 | 12711 ft | 153 kts | 173° |
| 2026-04-21 22:36 | -18.66776 | -70.31625 | 13435 ft | 154 kts | 174° |
| 2026-04-21 22:36 | -18.67833 | -70.31476 | 13796 ft | 155 kts | 174° |
| 2026-04-21 22:36 | -18.68918 | -70.31321 | 14131 ft | 156 kts | 174° |
| 2026-04-21 22:37 | -18.70003 | -70.31168 | 14431 ft | 158 kts | 174° |
| 2026-04-21 22:37 | -18.71085 | -70.31014 | 14723 ft | 160 kts | 174° |
| 2026-04-21 22:37 | -18.72201 | -70.30855 | 14998 ft | 163 kts | 174° |
| 2026-04-21 22:37 | -18.73336 | -70.30696 | 15289 ft | 165 kts | 174° |
| 2026-04-21 22:38 | -18.74485 | -70.30533 | 15573 ft | 168 kts | 174° |
| 2026-04-21 22:38 | -18.75654 | -70.30366 | 15860 ft | 171 kts | 175° |
| 2026-04-21 22:38 | -18.76840 | -70.30199 | 16135 ft | 174 kts | 175° |
| 2026-04-21 22:38 | -18.78047 | -70.30028 | 16414 ft | 176 kts | 175° |
| 2026-04-21 22:39 | -18.79269 | -70.29853 | 16715 ft | 178 kts | 175° |
| 2026-04-21 22:39 | -18.80504 | -70.29679 | 17010 ft | 180 kts | 175° |
| 2026-04-21 22:39 | -18.81747 | -70.29503 | 17309 ft | 181 kts | 175° |
| 2026-04-21 22:39 | -18.82989 | -70.29326 | 17603 ft | 183 kts | 175° |
| 2026-04-21 22:40 | -18.84257 | -70.29145 | 17899 ft | 185 kts | 175° |
| 2026-04-21 22:40 | -18.85555 | -70.28960 | 18192 ft | 187 kts | 175° |
| 2026-04-21 22:40 | -18.86852 | -70.28777 | 18458 ft | 189 kts | 175° |
| 2026-04-21 22:40 | -18.88154 | -70.28592 | 18714 ft | 189 kts | 175° |
| 2026-04-21 22:41 | -18.89446 | -70.28408 | 18973 ft | 190 kts | 175° |
| 2026-04-21 22:41 | -18.90758 | -70.28221 | 19232 ft | 190 kts | 175° |
| 2026-04-21 22:41 | -18.92072 | -70.28034 | 19494 ft | 191 kts | 176° |
| 2026-04-21 22:41 | -18.93390 | -70.27847 | 19750 ft | 191 kts | 176° |
| 2026-04-21 22:42 | -18.94712 | -70.27659 | 19990 ft | 192 kts | 176° |
| 2026-04-21 22:42 | -18.96040 | -70.27470 | 20242 ft | 193 kts | 176° |
| 2026-04-21 22:42 | -18.97371 | -70.27281 | 20492 ft | 193 kts | 176° |
| 2026-04-21 22:42 | -18.98708 | -70.27090 | 20739 ft | 194 kts | 176° |
| 2026-04-21 22:43 | -19.00048 | -70.26899 | 20998 ft | 194 kts | 176° |
| 2026-04-21 22:43 | -19.01391 | -70.26717 | 21241 ft | 195 kts | 177° |
| 2026-04-21 22:43 | -19.02722 | -70.26547 | 21476 ft | 195 kts | 178° |
| 2026-04-21 22:43 | -19.04071 | -70.26371 | 21718 ft | 196 kts | 178° |
| 2026-04-21 22:44 | -19.05432 | -70.26192 | 21956 ft | 196 kts | 178° |
| 2026-04-21 22:44 | -19.06792 | -70.26013 | 22198 ft | 197 kts | 178° |
| 2026-04-21 22:44 | -19.08155 | -70.25834 | 22432 ft | 198 kts | 178° |
| 2026-04-21 22:44 | -19.09522 | -70.25655 | 22670 ft | 198 kts | 178° |
| 2026-04-21 22:45 | -19.10891 | -70.25475 | 22900 ft | 198 kts | 178° |
| 2026-04-21 22:45 | -19.12263 | -70.25294 | 23131 ft | 199 kts | 178° |
| 2026-04-21 22:45 | -19.13643 | -70.25113 | 23363 ft | 200 kts | 178° |
| 2026-04-21 22:45 | -19.15023 | -70.24932 | 23582 ft | 200 kts | 178° |
| 2026-04-21 22:46 | -19.16409 | -70.24750 | 23780 ft | 201 kts | 178° |
| 2026-04-21 22:46 | -19.17798 | -70.24567 | 23967 ft | 201 kts | 178° |
| 2026-04-21 22:46 | -19.19193 | -70.24384 | 24145 ft | 202 kts | 178° |
| 2026-04-21 22:46 | -19.20593 | -70.24199 | 24329 ft | 203 kts | 178° |
| 2026-04-21 22:47 | -19.21998 | -70.24014 | 24506 ft | 204 kts | 179° |
| 2026-04-21 22:47 | -19.23411 | -70.23829 | 24683 ft | 205 kts | 179° |
| 2026-04-21 22:47 | -19.24810 | -70.23644 | 24876 ft | 205 kts | 179° |
| 2026-04-21 22:47 | -19.26236 | -70.23457 | 25009 ft | 210 kts | 179° |
| 2026-04-21 22:48 | -19.27730 | -70.23268 | 25015 ft | 221 kts | 179° |
| 2026-04-21 22:48 | -19.29301 | -70.23067 | 25022 ft | 233 kts | 179° |
| 2026-04-21 22:48 | -19.30946 | -70.22857 | 25023 ft | 243 kts | 179° |
| 2026-04-21 22:48 | -19.32658 | -70.22633 | 25025 ft | 252 kts | 178° |
| 2026-04-21 22:49 | -19.34430 | -70.22399 | 25025 ft | 261 kts | 178° |
| 2026-04-21 22:49 | -19.36282 | -70.22155 | 25028 ft | 268 kts | 178° |
| 2026-04-21 22:49 | -19.38157 | -70.21909 | 25024 ft | 274 kts | 178° |
| 2026-04-21 22:49 | -19.40073 | -70.21658 | 25028 ft | 279 kts | 178° |
| 2026-04-21 22:50 | -19.41997 | -70.21406 | 25025 ft | 284 kts | 178° |
| 2026-04-21 22:50 | -19.43975 | -70.21283 | 25025 ft | 286 kts | 186° |
| 2026-04-21 22:50 | -19.45974 | -70.21314 | 25022 ft | 289 kts | 186° |
| 2026-04-21 22:50 | -19.47999 | -70.21324 | 25016 ft | 292 kts | 186° |
| 2026-04-21 22:51 | -19.50040 | -70.21323 | 25012 ft | 294 kts | 186° |
| 2026-04-21 22:51 | -19.52088 | -70.21328 | 25009 ft | 295 kts | 186° |
| 2026-04-21 22:51 | -19.54143 | -70.21338 | 25009 ft | 295 kts | 186° |
| 2026-04-21 22:51 | -19.56203 | -70.21346 | 25010 ft | 296 kts | 186° |
| 2026-04-21 22:52 | -19.58262 | -70.21352 | 25009 ft | 296 kts | 186° |
| 2026-04-21 22:52 | -19.60324 | -70.21360 | 25011 ft | 297 kts | 186° |
| 2026-04-21 22:52 | -19.62393 | -70.21368 | 25010 ft | 297 kts | 186° |
| 2026-04-21 22:52 | -19.64463 | -70.21375 | 25008 ft | 297 kts | 186° |
| 2026-04-21 22:53 | -19.66532 | -70.21381 | 25006 ft | 297 kts | 186° |
| 2026-04-21 22:53 | -19.68602 | -70.21389 | 25007 ft | 297 kts | 186° |
| 2026-04-21 22:53 | -19.70665 | -70.21396 | 25007 ft | 297 kts | 186° |
| 2026-04-21 22:53 | -19.72739 | -70.21404 | 25005 ft | 298 kts | 186° |
| 2026-04-21 22:54 | -19.74810 | -70.21411 | 25005 ft | 298 kts | 186° |
| 2026-04-21 22:54 | -19.76884 | -70.21418 | 25006 ft | 298 kts | 186° |
| 2026-04-21 22:54 | -19.78950 | -70.21426 | 25006 ft | 298 kts | 186° |
| 2026-04-21 22:54 | -19.81025 | -70.21433 | 25009 ft | 298 kts | 186° |
| 2026-04-21 22:55 | -19.83043 | -70.21440 | 25007 ft | 298 kts | 186° |
| 2026-04-21 22:55 | -19.85116 | -70.21447 | 25007 ft | 298 kts | 186° |
| 2026-04-21 22:55 | -19.86521 | -70.21452 | 25010 ft | 298 kts | 186° |
| 2026-04-21 22:55 | -19.88584 | -70.21459 | 25046 ft | 296 kts | 186° |
| 2026-04-21 22:56 | -19.90601 | -70.21465 | 25061 ft | 296 kts | 186° |
| 2026-04-21 22:56 | -19.92685 | -70.21473 | 25057 ft | 296 kts | 187° |
| 2026-04-21 22:56 | -19.94750 | -70.21481 | 25056 ft | 297 kts | 187° |
| 2026-04-21 22:56 | -19.96816 | -70.21489 | 25058 ft | 297 kts | 186° |
| 2026-04-21 22:57 | -19.98889 | -70.21495 | 25057 ft | 298 kts | 186° |
| 2026-04-21 22:57 | -20.00947 | -70.21502 | 25058 ft | 299 kts | 187° |
| 2026-04-21 22:57 | -20.03032 | -70.21510 | 25058 ft | 300 kts | 187° |
| 2026-04-21 22:57 | -20.05124 | -70.21520 | 25057 ft | 301 kts | 187° |
| 2026-04-21 22:58 | -20.07225 | -70.21527 | 25055 ft | 302 kts | 187° |
| 2026-04-21 22:58 | -20.09330 | -70.21535 | 25056 ft | 303 kts | 187° |
| 2026-04-21 22:58 | -20.11445 | -70.21543 | 25055 ft | 304 kts | 187° |
| 2026-04-21 22:58 | -20.13561 | -70.21550 | 25057 ft | 304 kts | 187° |
| 2026-04-21 22:59 | -20.15683 | -70.21558 | 25055 ft | 305 kts | 187° |
| 2026-04-21 22:59 | -20.17809 | -70.21566 | 25052 ft | 306 kts | 187° |
| 2026-04-21 22:59 | -20.19940 | -70.21573 | 25052 ft | 306 kts | 187° |
| 2026-04-21 22:59 | -20.22071 | -70.21581 | 25047 ft | 306 kts | 187° |
| 2026-04-21 23:00 | -20.24204 | -70.21588 | 25044 ft | 307 kts | 187° |
| 2026-04-21 23:00 | -20.26342 | -70.21596 | 25041 ft | 307 kts | 187° |
| 2026-04-21 23:00 | -20.28452 | -70.21603 | 25035 ft | 307 kts | 187° |
| 2026-04-21 23:00 | -20.30593 | -70.21611 | 25034 ft | 308 kts | 187° |
| 2026-04-21 23:01 | -20.32734 | -70.21619 | 25032 ft | 308 kts | 187° |
| 2026-04-21 23:01 | -20.34877 | -70.21627 | 25025 ft | 308 kts | 187° |
| 2026-04-21 23:01 | -20.37022 | -70.21634 | 25021 ft | 308 kts | 187° |
| 2026-04-21 23:01 | -20.39169 | -70.21614 | 25019 ft | 310 kts | 184° |
| 2026-04-21 23:02 | -20.41326 | -70.21554 | 25022 ft | 310 kts | 185° |
| 2026-04-21 23:02 | -20.43481 | -70.21578 | 25019 ft | 309 kts | 187° |
| 2026-04-21 23:02 | -20.45635 | -70.21629 | 25017 ft | 310 kts | 186° |
| 2026-04-21 23:02 | -20.47803 | -70.21640 | 25016 ft | 311 kts | 185° |
| 2026-04-21 23:03 | -20.49970 | -70.21634 | 25021 ft | 312 kts | 185° |
| 2026-04-21 23:03 | -20.52138 | -70.21639 | 25020 ft | 312 kts | 186° |
| 2026-04-21 23:03 | -20.54308 | -70.21653 | 25024 ft | 312 kts | 186° |
| 2026-04-21 23:03 | -20.56481 | -70.21662 | 25018 ft | 312 kts | 186° |
| 2026-04-21 23:04 | -20.58658 | -70.21668 | 25017 ft | 313 kts | 186° |
| 2026-04-21 23:04 | -20.60830 | -70.21675 | 25023 ft | 312 kts | 186° |
| 2026-04-21 23:04 | -20.63004 | -70.21684 | 25001 ft | 312 kts | 184° |
| 2026-04-21 23:04 | -20.65179 | -70.21692 | 25018 ft | 313 kts | 184° |
| 2026-04-21 23:05 | -20.67360 | -70.21698 | 25026 ft | 313 kts | 184° |
| 2026-04-21 23:05 | -20.69548 | -70.21706 | 25033 ft | 314 kts | 184° |
| 2026-04-21 23:05 | -20.71738 | -70.21715 | 25033 ft | 315 kts | 184° |
| 2026-04-21 23:05 | -20.73930 | -70.21723 | 25038 ft | 315 kts | 184° |
| 2026-04-21 23:06 | -20.76123 | -70.21731 | 25039 ft | 315 kts | 184° |
| 2026-04-21 23:06 | -20.78320 | -70.21739 | 25043 ft | 316 kts | 184° |
| 2026-04-21 23:06 | -20.80524 | -70.21747 | 25056 ft | 316 kts | 184° |
| 2026-04-21 23:06 | -20.82722 | -70.21755 | 25060 ft | 316 kts | 184° |
| 2026-04-21 23:07 | -20.84924 | -70.21763 | 25062 ft | 316 kts | 184° |
| 2026-04-21 23:07 | -20.87127 | -70.21771 | 25062 ft | 316 kts | 184° |
| 2026-04-21 23:07 | -20.89328 | -70.21779 | 25064 ft | 316 kts | 184° |
| 2026-04-21 23:07 | -20.91349 | -70.21786 | 25065 ft | 317 kts | 184° |
| 2026-04-21 23:08 | -20.93552 | -70.21794 | 25063 ft | 317 kts | 184° |
| 2026-04-21 23:08 | -20.95755 | -70.21802 | 25066 ft | 317 kts | 184° |
| 2026-04-21 23:08 | -20.97973 | -70.21810 | 25065 ft | 317 kts | 184° |
| 2026-04-21 23:08 | -21.00179 | -70.21818 | 25066 ft | 317 kts | 184° |
| 2026-04-21 23:09 | -21.02389 | -70.21825 | 25068 ft | 317 kts | 184° |
| 2026-04-21 23:09 | -21.04596 | -70.21832 | 25068 ft | 317 kts | 184° |
| 2026-04-21 23:09 | -21.06805 | -70.21840 | 25071 ft | 317 kts | 184° |
| 2026-04-21 23:09 | -21.09013 | -70.21847 | 25069 ft | 317 kts | 184° |
| 2026-04-21 23:10 | -21.11226 | -70.21855 | 25067 ft | 317 kts | 184° |
| 2026-04-21 23:10 | -21.13437 | -70.21863 | 25068 ft | 317 kts | 184° |
| 2026-04-21 23:10 | -21.15648 | -70.21870 | 25068 ft | 318 kts | 184° |
| 2026-04-21 23:10 | -21.17860 | -70.21878 | 25068 ft | 318 kts | 184° |
| 2026-04-21 23:11 | -21.20074 | -70.21885 | 25067 ft | 318 kts | 184° |
| 2026-04-21 23:11 | -21.22179 | -70.21892 | 25070 ft | 318 kts | 184° |
| 2026-04-21 23:11 | -21.24391 | -70.21900 | 25068 ft | 318 kts | 185° |
| 2026-04-21 23:11 | -21.26603 | -70.21907 | 25069 ft | 318 kts | 185° |
| 2026-04-21 23:12 | -21.28812 | -70.21915 | 25068 ft | 318 kts | 185° |
| 2026-04-21 23:12 | -21.31026 | -70.21922 | 25068 ft | 318 kts | 185° |
| 2026-04-21 23:12 | -21.33236 | -70.21930 | 25069 ft | 318 kts | 185° |
| 2026-04-21 23:12 | -21.35483 | -70.21937 | 25069 ft | 318 kts | 185° |
| 2026-04-21 23:13 | -21.37692 | -70.21945 | 25069 ft | 318 kts | 185° |
| 2026-04-21 23:13 | -21.39916 | -70.21952 | 25069 ft | 318 kts | 185° |
| 2026-04-21 23:13 | -21.42131 | -70.21960 | 25069 ft | 318 kts | 185° |
| 2026-04-21 23:13 | -21.44352 | -70.21967 | 25067 ft | 318 kts | 185° |
| 2026-04-21 23:14 | -21.46573 | -70.21975 | 25067 ft | 318 kts | 185° |
| 2026-04-21 23:14 | -21.48788 | -70.21982 | 25070 ft | 319 kts | 185° |
| 2026-04-21 23:14 | -21.51038 | -70.21990 | 25067 ft | 319 kts | 185° |
| 2026-04-21 23:14 | -21.53256 | -70.21998 | 25069 ft | 319 kts | 185° |
| 2026-04-21 23:15 | -21.55476 | -70.22005 | 25068 ft | 319 kts | 185° |
| 2026-04-21 23:15 | -21.57695 | -70.22013 | 25067 ft | 319 kts | 185° |
| 2026-04-21 23:15 | -21.59917 | -70.22020 | 25068 ft | 319 kts | 185° |
| 2026-04-21 23:15 | -21.62168 | -70.22028 | 25067 ft | 319 kts | 185° |
| 2026-04-21 23:16 | -21.64359 | -70.22035 | 25069 ft | 319 kts | 185° |
| 2026-04-21 23:16 | -21.66582 | -70.22043 | 25068 ft | 319 kts | 185° |
| 2026-04-21 23:16 | -21.68842 | -70.22051 | 25065 ft | 319 kts | 185° |
| 2026-04-21 23:16 | -21.71054 | -70.22059 | 25065 ft | 319 kts | 185° |
| 2026-04-21 23:17 | -21.73246 | -70.22066 | 25068 ft | 319 kts | 185° |
| 2026-04-21 23:17 | -21.75441 | -70.22073 | 25068 ft | 319 kts | 185° |
| 2026-04-21 23:17 | -21.77631 | -70.22081 | 25069 ft | 320 kts | 185° |
| 2026-04-21 23:17 | -21.79890 | -70.22088 | 25066 ft | 320 kts | 185° |
| 2026-04-21 23:18 | -21.82149 | -70.22096 | 25067 ft | 320 kts | 185° |
| 2026-04-21 23:18 | -21.84381 | -70.22104 | 25066 ft | 320 kts | 185° |
| 2026-04-21 23:18 | -21.85850 | -70.22109 | 25066 ft | 320 kts | 185° |
| 2026-04-21 23:18 | -21.88029 | -70.22116 | 25064 ft | 320 kts | 185° |
| 2026-04-21 23:19 | -21.90334 | -70.22266 | 25065 ft | 315 kts | 194° |
| 2026-04-21 23:19 | -21.92482 | -70.22631 | 25063 ft | 315 kts | 194° |
| 2026-04-21 23:19 | -21.94667 | -70.22970 | 25066 ft | 316 kts | 193° |
| 2026-04-21 23:19 | -21.96844 | -70.23298 | 25065 ft | 316 kts | 193° |
| 2026-04-21 23:20 | -21.99022 | -70.23641 | 25065 ft | 316 kts | 194° |
| 2026-04-21 23:20 | -22.01195 | -70.23987 | 25064 ft | 316 kts | 194° |
| 2026-04-21 23:20 | -22.03434 | -70.24338 | 25066 ft | 316 kts | 194° |
| 2026-04-21 23:20 | -22.05557 | -70.24670 | 25063 ft | 316 kts | 194° |
| 2026-04-21 23:21 | -22.07740 | -70.25013 | 25066 ft | 316 kts | 194° |
| 2026-04-21 23:21 | -22.09921 | -70.25356 | 25068 ft | 316 kts | 194° |
| 2026-04-21 23:21 | -22.12075 | -70.25695 | 25064 ft | 316 kts | 194° |
| 2026-04-21 23:21 | -22.14252 | -70.26037 | 25066 ft | 316 kts | 194° |
| 2026-04-21 23:22 | -22.16427 | -70.26379 | 25065 ft | 316 kts | 194° |
| 2026-04-21 23:22 | -22.18632 | -70.26726 | 25065 ft | 316 kts | 194° |
| 2026-04-21 23:22 | -22.20813 | -70.27070 | 25064 ft | 316 kts | 194° |
| 2026-04-21 23:22 | -22.22992 | -70.27413 | 25065 ft | 316 kts | 194° |
| 2026-04-21 23:23 | -22.25173 | -70.27756 | 25063 ft | 316 kts | 194° |
| 2026-04-21 23:23 | -22.27339 | -70.28097 | 25066 ft | 316 kts | 194° |
| 2026-04-21 23:23 | -22.29528 | -70.28443 | 25064 ft | 316 kts | 194° |
| 2026-04-21 23:23 | -22.31711 | -70.28787 | 25065 ft | 316 kts | 194° |
| 2026-04-21 23:24 | -22.33887 | -70.29130 | 25062 ft | 316 kts | 194° |
| 2026-04-21 23:24 | -22.36068 | -70.29474 | 25066 ft | 316 kts | 194° |
| 2026-04-21 23:24 | -22.38231 | -70.29815 | 25064 ft | 316 kts | 194° |
| 2026-04-21 23:24 | -22.40422 | -70.30161 | 25064 ft | 316 kts | 194° |
| 2026-04-21 23:25 | -22.42635 | -70.30511 | 25061 ft | 316 kts | 194° |
| 2026-04-21 23:25 | -22.44814 | -70.30855 | 25063 ft | 316 kts | 194° |
| 2026-04-21 23:25 | -22.46992 | -70.31199 | 25062 ft | 316 kts | 194° |
| 2026-04-21 23:25 | -22.49172 | -70.31543 | 25062 ft | 316 kts | 194° |
| 2026-04-21 23:26 | -22.51264 | -70.31875 | 25063 ft | 316 kts | 194° |
| 2026-04-21 23:26 | -22.53439 | -70.32218 | 25064 ft | 316 kts | 194° |
| 2026-04-21 23:26 | -22.55493 | -70.32543 | 25065 ft | 316 kts | 194° |
| 2026-04-21 23:26 | -22.57798 | -70.32908 | 25063 ft | 316 kts | 194° |
| 2026-04-21 23:27 | -22.59977 | -70.33253 | 25063 ft | 316 kts | 194° |
| 2026-04-21 23:27 | -22.62154 | -70.33598 | 25065 ft | 316 kts | 194° |
| 2026-04-21 23:27 | -22.64334 | -70.33943 | 25065 ft | 316 kts | 194° |
| 2026-04-21 23:27 | -22.66515 | -70.34289 | 25064 ft | 316 kts | 195° |
| 2026-04-21 23:28 | -22.68691 | -70.34634 | 25064 ft | 316 kts | 195° |
| 2026-04-21 23:28 | -22.70872 | -70.34980 | 25064 ft | 316 kts | 195° |
| 2026-04-21 23:28 | -22.73051 | -70.35325 | 25065 ft | 316 kts | 195° |
| 2026-04-21 23:28 | -22.75258 | -70.35676 | 25062 ft | 316 kts | 195° |
| 2026-04-21 23:29 | -22.77433 | -70.36021 | 25062 ft | 316 kts | 195° |
| 2026-04-21 23:29 | -22.79647 | -70.36372 | 25061 ft | 316 kts | 195° |
| 2026-04-21 23:29 | -22.81798 | -70.36714 | 25062 ft | 316 kts | 195° |
| 2026-04-21 23:29 | -22.84009 | -70.37065 | 25063 ft | 316 kts | 195° |
| 2026-04-21 23:30 | -22.86182 | -70.37410 | 25063 ft | 316 kts | 195° |
| 2026-04-21 23:30 | -22.88368 | -70.37748 | 25061 ft | 318 kts | 193° |
| 2026-04-21 23:30 | -22.90571 | -70.37806 | 25058 ft | 322 kts | 186° |
| 2026-04-21 23:30 | -22.92837 | -70.37803 | 25062 ft | 321 kts | 187° |
| 2026-04-21 23:31 | -22.95065 | -70.37829 | 25062 ft | 321 kts | 187° |
| 2026-04-21 23:31 | -22.97308 | -70.37855 | 25060 ft | 321 kts | 187° |
| 2026-04-21 23:31 | -22.99545 | -70.37869 | 25062 ft | 322 kts | 187° |
| 2026-04-21 23:31 | -23.01784 | -70.37883 | 25061 ft | 322 kts | 187° |
| 2026-04-21 23:32 | -23.04020 | -70.37901 | 25060 ft | 322 kts | 187° |
| 2026-04-21 23:32 | -23.06288 | -70.37919 | 25062 ft | 322 kts | 187° |
| 2026-04-21 23:32 | -23.08528 | -70.37936 | 25061 ft | 322 kts | 187° |
| 2026-04-21 23:32 | -23.10767 | -70.37953 | 25063 ft | 322 kts | 187° |
| 2026-04-21 23:33 | -23.12663 | -70.37968 | 25066 ft | 322 kts | 187° |
| 2026-04-21 23:33 | -23.14896 | -70.37985 | 25067 ft | 322 kts | 187° |
| 2026-04-21 23:33 | -23.17142 | -70.38002 | 25071 ft | 323 kts | 187° |
| 2026-04-21 23:33 | -23.19388 | -70.38019 | 25072 ft | 323 kts | 187° |
| 2026-04-21 23:34 | -23.20910 | -70.38030 | 25073 ft | 323 kts | 187° |
| 2026-04-21 23:34 | -23.23182 | -70.38048 | 25074 ft | 323 kts | 187° |
| 2026-04-21 23:34 | -23.25445 | -70.38065 | 25075 ft | 323 kts | 187° |
| 2026-04-21 23:34 | -23.27720 | -70.38083 | 25074 ft | 323 kts | 187° |
| 2026-04-21 23:35 | -23.29991 | -70.38100 | 25076 ft | 323 kts | 187° |
| 2026-04-21 23:35 | -23.32016 | -70.38116 | 25079 ft | 324 kts | 187° |
| 2026-04-21 23:35 | -23.34220 | -70.38133 | 25079 ft | 324 kts | 187° |
| 2026-04-21 23:35 | -23.36514 | -70.38150 | 25081 ft | 324 kts | 187° |
| 2026-04-21 23:36 | -23.38781 | -70.38167 | 25083 ft | 324 kts | 187° |
| 2026-04-21 23:36 | -23.41039 | -70.38185 | 25084 ft | 324 kts | 187° |
| 2026-04-21 23:36 | -23.43291 | -70.38203 | 25085 ft | 324 kts | 187° |
| 2026-04-21 23:36 | -23.45568 | -70.38220 | 25086 ft | 325 kts | 187° |
| 2026-04-21 23:37 | -23.47846 | -70.38237 | 25085 ft | 325 kts | 187° |
| 2026-04-21 23:37 | -23.50106 | -70.38255 | 25080 ft | 325 kts | 187° |
| 2026-04-21 23:37 | -23.52369 | -70.38272 | 25082 ft | 325 kts | 187° |
| 2026-04-21 23:37 | -23.54636 | -70.38290 | 25084 ft | 326 kts | 187° |
| 2026-04-21 23:38 | -23.56933 | -70.38307 | 25081 ft | 326 kts | 187° |
| 2026-04-21 23:38 | -23.59200 | -70.38324 | 25080 ft | 326 kts | 187° |
| 2026-04-21 23:38 | -23.61473 | -70.38342 | 25078 ft | 326 kts | 187° |
| 2026-04-21 23:38 | -23.63740 | -70.38360 | 25080 ft | 326 kts | 187° |
| 2026-04-21 23:39 | -23.66017 | -70.38377 | 25075 ft | 327 kts | 187° |
| 2026-04-21 23:39 | -23.68293 | -70.38395 | 25075 ft | 327 kts | 187° |
| 2026-04-21 23:39 | -23.70574 | -70.38412 | 25073 ft | 327 kts | 187° |
| 2026-04-21 23:39 | -23.72855 | -70.38429 | 25072 ft | 327 kts | 187° |
| 2026-04-21 23:40 | -23.75129 | -70.38447 | 25071 ft | 327 kts | 187° |
| 2026-04-21 23:40 | -23.77439 | -70.38466 | 25067 ft | 327 kts | 187° |
| 2026-04-21 23:40 | -23.79709 | -70.38479 | 25068 ft | 328 kts | 186° |
| 2026-04-21 23:40 | -23.82001 | -70.38389 | 25067 ft | 328 kts | 185° |
| 2026-04-21 23:41 | -23.84251 | -70.38318 | 25071 ft | 328 kts | 186° |
| 2026-04-21 23:41 | -23.86590 | -70.38255 | 25070 ft | 328 kts | 185° |
| 2026-04-21 23:41 | -23.88872 | -70.38180 | 25072 ft | 328 kts | 185° |
| 2026-04-21 23:41 | -23.91115 | -70.38100 | 25072 ft | 328 kts | 185° |
| 2026-04-21 23:42 | -23.93443 | -70.38021 | 25070 ft | 328 kts | 185° |
| 2026-04-21 23:42 | -23.95722 | -70.37948 | 25068 ft | 327 kts | 186° |
| 2026-04-21 23:42 | -23.97998 | -70.37873 | 25070 ft | 327 kts | 185° |
| 2026-04-21 23:42 | -24.00278 | -70.37796 | 25072 ft | 328 kts | 185° |
| 2026-04-21 23:43 | -24.02540 | -70.37720 | 25068 ft | 328 kts | 185° |
| 2026-04-21 23:43 | -24.04847 | -70.37645 | 25070 ft | 328 kts | 185° |
| 2026-04-21 23:43 | -24.07132 | -70.37569 | 25069 ft | 329 kts | 185° |
| 2026-04-21 23:43 | -24.09424 | -70.37492 | 25065 ft | 329 kts | 185° |
| 2026-04-21 23:44 | -24.11706 | -70.37415 | 25068 ft | 328 kts | 185° |
| 2026-04-21 23:44 | -24.13994 | -70.37339 | 25071 ft | 328 kts | 185° |
| 2026-04-21 23:44 | -24.16301 | -70.37263 | 25069 ft | 328 kts | 185° |
| 2026-04-21 23:44 | -24.18575 | -70.37186 | 25071 ft | 327 kts | 186° |
| 2026-04-21 23:45 | -24.20854 | -70.37110 | 25066 ft | 326 kts | 186° |
| 2026-04-21 23:45 | -24.25439 | -70.36957 | 25070 ft | 327 kts | 186° |
| 2026-04-21 23:45 | -24.27715 | -70.36881 | 25069 ft | 327 kts | 185° |
| 2026-04-21 23:46 | -24.29961 | -70.36806 | 25074 ft | 328 kts | 186° |
| 2026-04-21 23:46 | -24.32301 | -70.36729 | 25075 ft | 328 kts | 186° |
| 2026-04-21 23:46 | -24.34588 | -70.36652 | 25077 ft | 328 kts | 186° |
| 2026-04-21 23:46 | -24.36876 | -70.36575 | 25077 ft | 328 kts | 186° |
| 2026-04-21 23:47 | -24.39166 | -70.36498 | 25081 ft | 328 kts | 186° |
| 2026-04-21 23:47 | -24.41441 | -70.36423 | 25084 ft | 329 kts | 186° |
| 2026-04-21 23:47 | -24.43741 | -70.36346 | 25083 ft | 329 kts | 186° |
| 2026-04-21 23:47 | -24.46034 | -70.36269 | 25085 ft | 329 kts | 186° |
| 2026-04-21 23:48 | -24.48329 | -70.36192 | 25079 ft | 330 kts | 186° |
| 2026-04-21 23:48 | -24.50651 | -70.36114 | 25085 ft | 330 kts | 186° |
| 2026-04-21 23:48 | -24.52951 | -70.36037 | 25085 ft | 330 kts | 186° |
| 2026-04-21 23:48 | -24.54466 | -70.35986 | 25080 ft | 329 kts | 186° |
| 2026-04-21 23:49 | -24.56756 | -70.35908 | 25091 ft | 328 kts | 186° |
| 2026-04-21 23:49 | -24.59050 | -70.35831 | 25088 ft | 328 kts | 186° |
| 2026-04-21 23:49 | -24.61326 | -70.35753 | 25086 ft | 327 kts | 186° |
| 2026-04-21 23:49 | -24.63592 | -70.35678 | 25089 ft | 326 kts | 186° |
| 2026-04-21 23:50 | -24.65899 | -70.35603 | 25091 ft | 326 kts | 186° |
| 2026-04-21 23:50 | -24.68167 | -70.35527 | 25093 ft | 327 kts | 186° |
| 2026-04-21 23:50 | -24.70446 | -70.35449 | 25094 ft | 327 kts | 186° |
| 2026-04-21 23:50 | -24.72725 | -70.35373 | 25101 ft | 328 kts | 186° |
| 2026-04-21 23:51 | -24.74984 | -70.35297 | 25096 ft | 329 kts | 186° |
| 2026-04-21 23:51 | -24.77296 | -70.35219 | 25095 ft | 328 kts | 186° |
| 2026-04-21 23:51 | -24.79555 | -70.35143 | 25101 ft | 328 kts | 186° |
| 2026-04-21 23:51 | -24.81839 | -70.35066 | 25099 ft | 328 kts | 186° |
| 2026-04-21 23:52 | -24.84122 | -70.34990 | 25102 ft | 328 kts | 186° |
| 2026-04-21 23:52 | -24.86406 | -70.34915 | 25101 ft | 328 kts | 186° |
| 2026-04-21 23:52 | -24.88723 | -70.34836 | 25104 ft | 328 kts | 186° |
| 2026-04-21 23:52 | -24.91008 | -70.34759 | 25104 ft | 328 kts | 186° |
| 2026-04-21 23:53 | -24.93264 | -70.34684 | 25101 ft | 329 kts | 186° |
| 2026-04-21 23:53 | -24.95551 | -70.34608 | 25104 ft | 329 kts | 186° |
| 2026-04-21 23:53 | -24.97848 | -70.34531 | 25103 ft | 330 kts | 186° |
| 2026-04-21 23:53 | -25.00148 | -70.34454 | 25103 ft | 331 kts | 186° |
| 2026-04-21 23:54 | -25.02453 | -70.34377 | 25103 ft | 332 kts | 186° |
| 2026-04-21 23:54 | -25.04794 | -70.34299 | 25105 ft | 332 kts | 186° |
| 2026-04-21 23:54 | -25.07104 | -70.34220 | 25106 ft | 332 kts | 186° |
| 2026-04-21 23:54 | -25.09403 | -70.34142 | 25106 ft | 331 kts | 186° |
| 2026-04-21 23:55 | -25.11716 | -70.34066 | 25106 ft | 331 kts | 186° |
| 2026-04-21 23:55 | -25.14024 | -70.33989 | 25104 ft | 332 kts | 186° |
| 2026-04-21 23:55 | -25.16391 | -70.33908 | 25104 ft | 331 kts | 186° |
| 2026-04-21 23:55 | -25.18020 | -70.33853 | 25105 ft | 331 kts | 186° |
| 2026-04-21 23:56 | -25.20730 | -70.33762 | 25105 ft | 331 kts | 186° |
| 2026-04-21 23:56 | -25.22911 | -70.33688 | 25103 ft | 331 kts | 186° |
| 2026-04-21 23:56 | -25.25042 | -70.33617 | 25104 ft | 330 kts | 186° |
| 2026-04-21 23:56 | -25.27318 | -70.33541 | 25106 ft | 330 kts | 186° |
| 2026-04-21 23:57 | -25.29618 | -70.33461 | 25106 ft | 330 kts | 186° |
| 2026-04-21 23:57 | -25.31523 | -70.33398 | 25103 ft | 330 kts | 186° |
| 2026-04-21 23:57 | -25.33836 | -70.33321 | 25103 ft | 330 kts | 186° |
| 2026-04-21 23:57 | -25.35941 | -70.33250 | 25103 ft | 330 kts | 186° |
| 2026-04-21 23:58 | -25.38248 | -70.33171 | 25109 ft | 330 kts | 186° |
| 2026-04-21 23:58 | -25.40541 | -70.33093 | 25105 ft | 330 kts | 186° |
| 2026-04-21 23:58 | -25.42853 | -70.33016 | 25109 ft | 330 kts | 186° |
| 2026-04-21 23:58 | -25.45171 | -70.32937 | 25110 ft | 330 kts | 187° |
| 2026-04-21 23:59 | -25.47471 | -70.32860 | 25109 ft | 330 kts | 186° |
| 2026-04-21 23:59 | -25.49775 | -70.32783 | 25108 ft | 331 kts | 186° |
| 2026-04-21 23:59 | -25.52080 | -70.32705 | 25104 ft | 332 kts | 186° |
| 2026-04-21 23:59 | -25.54385 | -70.32626 | 25109 ft | 331 kts | 186° |
| 2026-04-22 00:00 | -25.56689 | -70.32547 | 25110 ft | 332 kts | 186° |
| 2026-04-22 00:00 | -25.59004 | -70.32470 | 25111 ft | 332 kts | 186° |
| 2026-04-22 00:00 | -25.61284 | -70.32393 | 25112 ft | 332 kts | 186° |
| 2026-04-22 00:00 | -25.63625 | -70.32313 | 25114 ft | 332 kts | 186° |
| 2026-04-22 00:01 | -25.65938 | -70.32234 | 25118 ft | 332 kts | 186° |
| 2026-04-22 00:01 | -25.68245 | -70.32156 | 25118 ft | 332 kts | 186° |
| 2026-04-22 00:01 | -25.70559 | -70.32078 | 25117 ft | 332 kts | 186° |
| 2026-04-22 00:01 | -25.72875 | -70.31998 | 25117 ft | 332 kts | 186° |
| 2026-04-22 00:02 | -25.75158 | -70.31920 | 25116 ft | 332 kts | 186° |
| 2026-04-22 00:02 | -25.77467 | -70.31842 | 25117 ft | 332 kts | 186° |
| 2026-04-22 00:02 | -25.79775 | -70.31764 | 25119 ft | 331 kts | 187° |
| 2026-04-22 00:02 | -25.82086 | -70.31685 | 25119 ft | 331 kts | 186° |
| 2026-04-22 00:03 | -25.84425 | -70.31605 | 25119 ft | 331 kts | 187° |
| 2026-04-22 00:03 | -25.86729 | -70.31527 | 25118 ft | 331 kts | 187° |
| 2026-04-22 00:03 | -25.89038 | -70.31449 | 25117 ft | 331 kts | 187° |
| 2026-04-22 00:03 | -25.91343 | -70.31370 | 25119 ft | 331 kts | 186° |
| 2026-04-22 00:04 | -25.93649 | -70.31291 | 25114 ft | 332 kts | 187° |
| 2026-04-22 00:04 | -25.95963 | -70.31212 | 25117 ft | 332 kts | 187° |
| 2026-04-22 00:04 | -25.98300 | -70.31132 | 25115 ft | 332 kts | 187° |
| 2026-04-22 00:04 | -25.99827 | -70.31080 | 25119 ft | 332 kts | 187° |
| 2026-04-22 00:05 | -26.02913 | -70.30976 | 25119 ft | 332 kts | 187° |
| 2026-04-22 00:05 | -26.05223 | -70.30896 | 25116 ft | 332 kts | 187° |
| 2026-04-22 00:05 | -26.07496 | -70.30887 | 25118 ft | 326 kts | 193° |
| 2026-04-22 00:05 | -26.08993 | -70.31036 | 25115 ft | 325 kts | 194° |
| 2026-04-22 00:06 | -26.11238 | -70.31265 | 25118 ft | 326 kts | 194° |
| 2026-04-22 00:06 | -26.13498 | -70.31464 | 25119 ft | 325 kts | 193° |
| 2026-04-22 00:06 | -26.15753 | -70.31659 | 25128 ft | 324 kts | 193° |
| 2026-04-22 00:06 | -26.17990 | -70.31866 | 25124 ft | 323 kts | 194° |
| 2026-04-22 00:07 | -26.20274 | -70.32081 | 25118 ft | 324 kts | 194° |
| 2026-04-22 00:07 | -26.22525 | -70.32287 | 25123 ft | 324 kts | 194° |
| 2026-04-22 00:07 | -26.24738 | -70.32488 | 25116 ft | 324 kts | 194° |
| 2026-04-22 00:07 | -26.26986 | -70.32695 | 25124 ft | 324 kts | 194° |
| 2026-04-22 00:08 | -26.29235 | -70.32902 | 25124 ft | 324 kts | 194° |
| 2026-04-22 00:08 | -26.31486 | -70.33109 | 25122 ft | 325 kts | 194° |
| 2026-04-22 00:08 | -26.33741 | -70.33316 | 25126 ft | 325 kts | 194° |
| 2026-04-22 00:08 | -26.36001 | -70.33524 | 25123 ft | 325 kts | 194° |
| 2026-04-22 00:09 | -26.38235 | -70.33730 | 25124 ft | 326 kts | 194° |
| 2026-04-22 00:09 | -26.40493 | -70.33938 | 25123 ft | 326 kts | 194° |
| 2026-04-22 00:09 | -26.42755 | -70.34146 | 25123 ft | 325 kts | 194° |
| 2026-04-22 00:09 | -26.45010 | -70.34353 | 25127 ft | 325 kts | 194° |
| 2026-04-22 00:10 | -26.47263 | -70.34560 | 25122 ft | 324 kts | 194° |
| 2026-04-22 00:10 | -26.49512 | -70.34768 | 25122 ft | 324 kts | 194° |
| 2026-04-22 00:10 | -26.51757 | -70.34975 | 25124 ft | 324 kts | 194° |
| 2026-04-22 00:10 | -26.54004 | -70.35183 | 25129 ft | 324 kts | 194° |
| 2026-04-22 00:11 | -26.56255 | -70.35391 | 25114 ft | 324 kts | 194° |
| 2026-04-22 00:11 | -26.58506 | -70.35599 | 25117 ft | 325 kts | 194° |
| 2026-04-22 00:11 | -26.60768 | -70.35808 | 25116 ft | 326 kts | 194° |
| 2026-04-22 00:11 | -26.63035 | -70.36018 | 25127 ft | 326 kts | 194° |
| 2026-04-22 00:12 | -26.65307 | -70.36228 | 25110 ft | 328 kts | 194° |
| 2026-04-22 00:12 | -26.67583 | -70.36438 | 25112 ft | 328 kts | 194° |
| 2026-04-22 00:12 | -26.69858 | -70.36649 | 25112 ft | 328 kts | 194° |
| 2026-04-22 00:12 | -26.72128 | -70.36859 | 25114 ft | 327 kts | 194° |
| 2026-04-22 00:13 | -26.74405 | -70.37070 | 25111 ft | 327 kts | 194° |
| 2026-04-22 00:13 | -26.76667 | -70.37276 | 25115 ft | 325 kts | 194° |
| 2026-04-22 00:13 | -26.78930 | -70.37488 | 25123 ft | 325 kts | 194° |
| 2026-04-22 00:13 | -26.81186 | -70.37699 | 25112 ft | 324 kts | 194° |
| 2026-04-22 00:14 | -26.83427 | -70.37905 | 25117 ft | 323 kts | 194° |
| 2026-04-22 00:14 | -26.85669 | -70.38112 | 25117 ft | 323 kts | 194° |
| 2026-04-22 00:14 | -26.87910 | -70.38322 | 25120 ft | 324 kts | 194° |
| 2026-04-22 00:14 | -26.90154 | -70.38531 | 25120 ft | 324 kts | 194° |
| 2026-04-22 00:15 | -26.92404 | -70.38740 | 25123 ft | 324 kts | 194° |
| 2026-04-22 00:15 | -26.94645 | -70.38947 | 25126 ft | 324 kts | 194° |
| 2026-04-22 00:15 | -26.96901 | -70.39157 | 25127 ft | 324 kts | 194° |
| 2026-04-22 00:15 | -26.99180 | -70.39370 | 25121 ft | 325 kts | 194° |
| 2026-04-22 00:16 | -27.01436 | -70.39580 | 25123 ft | 325 kts | 194° |
| 2026-04-22 00:16 | -27.03481 | -70.39770 | 25122 ft | 325 kts | 194° |
| 2026-04-22 00:16 | -27.05655 | -70.39974 | 25122 ft | 325 kts | 194° |
| 2026-04-22 00:16 | -27.07908 | -70.40185 | 25123 ft | 325 kts | 194° |
| 2026-04-22 00:17 | -27.10162 | -70.40395 | 25127 ft | 325 kts | 194° |
| 2026-04-22 00:17 | -27.12417 | -70.40606 | 25126 ft | 325 kts | 194° |
| 2026-04-22 00:17 | -27.14708 | -70.40819 | 25121 ft | 326 kts | 194° |
| 2026-04-22 00:17 | -27.16934 | -70.41026 | 25113 ft | 325 kts | 194° |
| 2026-04-22 00:18 | -27.19182 | -70.41234 | 25119 ft | 323 kts | 194° |
| 2026-04-22 00:18 | -27.21422 | -70.41447 | 25121 ft | 322 kts | 194° |
| 2026-04-22 00:18 | -27.23653 | -70.41658 | 25116 ft | 322 kts | 194° |
| 2026-04-22 00:18 | -27.25885 | -70.41864 | 25119 ft | 321 kts | 194° |
| 2026-04-22 00:19 | -27.28096 | -70.42069 | 25119 ft | 320 kts | 194° |
| 2026-04-22 00:19 | -27.30323 | -70.42279 | 25122 ft | 320 kts | 194° |
| 2026-04-22 00:19 | -27.32550 | -70.42491 | 25119 ft | 322 kts | 194° |
| 2026-04-22 00:19 | -27.34787 | -70.42700 | 25117 ft | 322 kts | 194° |
| 2026-04-22 00:20 | -27.37055 | -70.42912 | 25120 ft | 323 kts | 194° |
| 2026-04-22 00:20 | -27.39295 | -70.43123 | 25119 ft | 324 kts | 194° |
| 2026-04-22 00:20 | -27.41551 | -70.43335 | 25121 ft | 325 kts | 194° |
| 2026-04-22 00:20 | -27.43810 | -70.43547 | 25124 ft | 325 kts | 194° |
| 2026-04-22 00:21 | -27.46067 | -70.43759 | 25123 ft | 325 kts | 194° |
| 2026-04-22 00:21 | -27.48328 | -70.43971 | 25123 ft | 325 kts | 194° |
| 2026-04-22 00:21 | -27.50583 | -70.44183 | 25124 ft | 325 kts | 194° |
| 2026-04-22 00:21 | -27.52842 | -70.44395 | 25123 ft | 325 kts | 194° |
| 2026-04-22 00:22 | -27.55097 | -70.44608 | 25121 ft | 325 kts | 194° |
| 2026-04-22 00:22 | -27.57354 | -70.44820 | 25125 ft | 325 kts | 194° |
| 2026-04-22 00:22 | -27.59609 | -70.45032 | 25119 ft | 325 kts | 194° |
| 2026-04-22 00:22 | -27.61864 | -70.45245 | 25118 ft | 325 kts | 194° |
| 2026-04-22 00:23 | -27.64117 | -70.45458 | 25121 ft | 325 kts | 194° |
| 2026-04-22 00:23 | -27.66377 | -70.45671 | 25119 ft | 325 kts | 194° |
| 2026-04-22 00:23 | -27.68625 | -70.45883 | 25121 ft | 325 kts | 194° |
| 2026-04-22 00:23 | -27.70924 | -70.46100 | 25119 ft | 325 kts | 194° |
| 2026-04-22 00:24 | -27.73212 | -70.46316 | 25120 ft | 325 kts | 194° |
| 2026-04-22 00:24 | -27.75467 | -70.46528 | 25117 ft | 325 kts | 194° |
| 2026-04-22 00:24 | -27.77723 | -70.46742 | 25117 ft | 325 kts | 194° |
| 2026-04-22 00:24 | -27.79984 | -70.46956 | 25116 ft | 326 kts | 194° |
| 2026-04-22 00:25 | -27.82242 | -70.47170 | 25121 ft | 326 kts | 194° |
| 2026-04-22 00:25 | -27.84536 | -70.47387 | 25118 ft | 326 kts | 194° |
| 2026-04-22 00:25 | -27.86764 | -70.47598 | 25121 ft | 326 kts | 194° |
| 2026-04-22 00:25 | -27.89053 | -70.47814 | 25118 ft | 326 kts | 194° |
| 2026-04-22 00:26 | -27.91281 | -70.48025 | 25117 ft | 326 kts | 194° |
| 2026-04-22 00:26 | -27.93539 | -70.48239 | 25120 ft | 326 kts | 194° |
| 2026-04-22 00:26 | -27.95803 | -70.48454 | 25121 ft | 325 kts | 194° |
| 2026-04-22 00:26 | -27.98061 | -70.48668 | 25121 ft | 325 kts | 194° |
| 2026-04-22 00:27 | -28.00344 | -70.48885 | 25122 ft | 325 kts | 194° |
| 2026-04-22 00:27 | -28.02598 | -70.49099 | 25119 ft | 325 kts | 194° |
| 2026-04-22 00:27 | -28.04733 | -70.49301 | 25118 ft | 325 kts | 194° |
| 2026-04-22 00:27 | -28.07110 | -70.49527 | 25118 ft | 325 kts | 194° |
| 2026-04-22 00:28 | -28.08636 | -70.49672 | 25118 ft | 324 kts | 194° |
| 2026-04-22 00:28 | -28.10881 | -70.49885 | 25117 ft | 324 kts | 194° |
| 2026-04-22 00:28 | -28.13073 | -70.50095 | 25115 ft | 324 kts | 194° |
| 2026-04-22 00:28 | -28.15324 | -70.50309 | 25122 ft | 324 kts | 194° |
| 2026-04-22 00:29 | -28.17572 | -70.50521 | 25124 ft | 324 kts | 194° |
| 2026-04-22 00:29 | -28.19823 | -70.50736 | 25123 ft | 324 kts | 194° |
| 2026-04-22 00:29 | -28.22071 | -70.50951 | 25123 ft | 325 kts | 194° |
| 2026-04-22 00:29 | -28.24436 | -70.51177 | 25120 ft | 325 kts | 194° |
| 2026-04-22 00:30 | -28.26724 | -70.51395 | 25124 ft | 325 kts | 194° |
| 2026-04-22 00:30 | -28.28969 | -70.51609 | 25122 ft | 325 kts | 194° |
| 2026-04-22 00:30 | -28.31227 | -70.51824 | 25128 ft | 324 kts | 194° |
| 2026-04-22 00:30 | -28.33503 | -70.52041 | 25127 ft | 324 kts | 194° |
| 2026-04-22 00:31 | -28.35745 | -70.52256 | 25127 ft | 324 kts | 194° |
| 2026-04-22 00:31 | -28.38006 | -70.52471 | 25127 ft | 324 kts | 194° |
| 2026-04-22 00:31 | -28.40251 | -70.52689 | 25130 ft | 323 kts | 194° |
| 2026-04-22 00:31 | -28.42510 | -70.52904 | 25130 ft | 323 kts | 194° |
| 2026-04-22 00:32 | -28.44778 | -70.53118 | 25115 ft | 323 kts | 194° |
| 2026-04-22 00:32 | -28.47019 | -70.53329 | 25121 ft | 318 kts | 195° |
| 2026-04-22 00:32 | -28.49231 | -70.53548 | 25127 ft | 320 kts | 194° |
| 2026-04-22 00:32 | -28.51462 | -70.53762 | 25127 ft | 321 kts | 194° |
| 2026-04-22 00:33 | -28.53695 | -70.53968 | 25130 ft | 321 kts | 194° |
| 2026-04-22 00:33 | -28.55927 | -70.54174 | 25127 ft | 323 kts | 194° |
| 2026-04-22 00:33 | -28.58167 | -70.54382 | 25135 ft | 323 kts | 194° |
| 2026-04-22 00:33 | -28.60336 | -70.54587 | 25129 ft | 324 kts | 194° |
| 2026-04-22 00:34 | -28.62622 | -70.54801 | 25129 ft | 324 kts | 194° |
| 2026-04-22 00:34 | -28.64880 | -70.55013 | 25132 ft | 324 kts | 194° |
| 2026-04-22 00:34 | -28.67118 | -70.55222 | 25137 ft | 324 kts | 194° |
| 2026-04-22 00:34 | -28.69393 | -70.55433 | 25137 ft | 324 kts | 194° |
| 2026-04-22 00:35 | -28.71554 | -70.55636 | 25138 ft | 323 kts | 194° |
| 2026-04-22 00:35 | -28.73838 | -70.55853 | 25137 ft | 324 kts | 194° |
| 2026-04-22 00:35 | -28.76109 | -70.56065 | 25135 ft | 324 kts | 194° |
| 2026-04-22 00:35 | -28.78355 | -70.56275 | 25139 ft | 324 kts | 194° |
| 2026-04-22 00:36 | -28.80570 | -70.56484 | 25143 ft | 323 kts | 194° |
| 2026-04-22 00:36 | -28.82874 | -70.56699 | 25130 ft | 322 kts | 194° |
| 2026-04-22 00:36 | -28.85108 | -70.56908 | 25134 ft | 322 kts | 195° |
| 2026-04-22 00:36 | -28.87339 | -70.57119 | 25132 ft | 321 kts | 194° |
| 2026-04-22 00:37 | -28.89567 | -70.57330 | 25135 ft | 322 kts | 194° |
| 2026-04-22 00:37 | -28.91734 | -70.57535 | 25140 ft | 322 kts | 194° |
| 2026-04-22 00:37 | -28.93967 | -70.57743 | 25144 ft | 322 kts | 194° |
| 2026-04-22 00:37 | -28.96197 | -70.57960 | 25148 ft | 320 kts | 195° |
| 2026-04-22 00:38 | -28.98452 | -70.58182 | 25142 ft | 320 kts | 195° |
| 2026-04-22 00:38 | -29.00646 | -70.58393 | 25146 ft | 321 kts | 194° |
| 2026-04-22 00:38 | -29.02935 | -70.58613 | 25142 ft | 322 kts | 194° |
| 2026-04-22 00:38 | -29.04443 | -70.58759 | 25142 ft | 322 kts | 194° |
| 2026-04-22 00:39 | -29.06671 | -70.58975 | 25151 ft | 322 kts | 194° |
| 2026-04-22 00:39 | -29.08938 | -70.59196 | 25153 ft | 323 kts | 194° |
| 2026-04-22 00:39 | -29.11180 | -70.59410 | 25150 ft | 323 kts | 194° |
| 2026-04-22 00:39 | -29.13426 | -70.59628 | 25155 ft | 324 kts | 194° |
| 2026-04-22 00:40 | -29.15703 | -70.59850 | 25148 ft | 325 kts | 194° |
| 2026-04-22 00:40 | -29.17904 | -70.60064 | 25154 ft | 325 kts | 194° |
| 2026-04-22 00:40 | -29.20188 | -70.60285 | 25153 ft | 324 kts | 194° |
| 2026-04-22 00:40 | -29.22434 | -70.60501 | 25158 ft | 323 kts | 194° |
| 2026-04-22 00:41 | -29.24699 | -70.60720 | 25154 ft | 321 kts | 194° |
| 2026-04-22 00:41 | -29.26929 | -70.60937 | 25159 ft | 321 kts | 195° |
| 2026-04-22 00:41 | -29.29159 | -70.61155 | 25163 ft | 322 kts | 194° |
| 2026-04-22 00:41 | -29.31414 | -70.61375 | 25165 ft | 323 kts | 194° |
| 2026-04-22 00:42 | -29.33666 | -70.61592 | 25165 ft | 323 kts | 194° |
| 2026-04-22 00:42 | -29.36003 | -70.61818 | 25165 ft | 324 kts | 195° |
| 2026-04-22 00:42 | -29.38247 | -70.62038 | 25165 ft | 323 kts | 195° |
| 2026-04-22 00:42 | -29.40482 | -70.62255 | 25164 ft | 320 kts | 195° |
| 2026-04-22 00:43 | -29.42667 | -70.62466 | 25169 ft | 319 kts | 195° |
| 2026-04-22 00:43 | -29.44918 | -70.62686 | 25166 ft | 321 kts | 195° |
| 2026-04-22 00:43 | -29.47145 | -70.62904 | 25168 ft | 321 kts | 195° |
| 2026-04-22 00:43 | -29.49374 | -70.63122 | 25167 ft | 322 kts | 195° |
| 2026-04-22 00:44 | -29.51614 | -70.63340 | 25165 ft | 323 kts | 195° |
| 2026-04-22 00:44 | -29.53848 | -70.63557 | 25166 ft | 322 kts | 195° |
| 2026-04-22 00:44 | -29.56081 | -70.63775 | 25164 ft | 322 kts | 195° |
| 2026-04-22 00:44 | -29.58323 | -70.63995 | 25161 ft | 323 kts | 195° |
| 2026-04-22 00:45 | -29.60538 | -70.64212 | 25158 ft | 323 kts | 195° |
| 2026-04-22 00:45 | -29.62816 | -70.64433 | 25163 ft | 322 kts | 195° |
| 2026-04-22 00:45 | -29.65034 | -70.64650 | 25161 ft | 322 kts | 195° |
| 2026-04-22 00:45 | -29.67262 | -70.64868 | 25162 ft | 321 kts | 195° |
| 2026-04-22 00:46 | -29.69499 | -70.65086 | 25160 ft | 320 kts | 195° |
| 2026-04-22 00:46 | -29.71737 | -70.65306 | 25163 ft | 320 kts | 195° |
| 2026-04-22 00:46 | -29.74017 | -70.65531 | 25160 ft | 321 kts | 195° |
| 2026-04-22 00:46 | -29.76244 | -70.65749 | 25166 ft | 322 kts | 194° |
| 2026-04-22 00:47 | -29.78567 | -70.65976 | 25155 ft | 322 kts | 195° |
| 2026-04-22 00:47 | -29.80800 | -70.66193 | 25158 ft | 321 kts | 195° |
| 2026-04-22 00:47 | -29.83034 | -70.66413 | 25157 ft | 322 kts | 195° |
| 2026-04-22 00:47 | -29.85264 | -70.66634 | 25157 ft | 322 kts | 195° |
| 2026-04-22 00:48 | -29.87493 | -70.66853 | 25157 ft | 321 kts | 195° |
| 2026-04-22 00:48 | -29.89716 | -70.67070 | 25154 ft | 321 kts | 195° |
| 2026-04-22 00:48 | -29.91230 | -70.67218 | 25156 ft | 319 kts | 195° |
| 2026-04-22 00:48 | -29.93439 | -70.67435 | 25155 ft | 319 kts | 195° |
| 2026-04-22 00:49 | -29.95683 | -70.67656 | 25155 ft | 319 kts | 195° |
| 2026-04-22 00:49 | -29.97895 | -70.67876 | 25153 ft | 319 kts | 195° |
| 2026-04-22 00:49 | -30.00114 | -70.68095 | 25153 ft | 320 kts | 195° |
| 2026-04-22 00:49 | -30.02331 | -70.68311 | 25155 ft | 320 kts | 195° |
| 2026-04-22 00:50 | -30.04577 | -70.68532 | 25154 ft | 320 kts | 195° |
| 2026-04-22 00:50 | -30.06824 | -70.68755 | 25148 ft | 321 kts | 195° |
| 2026-04-22 00:50 | -30.09058 | -70.68977 | 25156 ft | 321 kts | 195° |
| 2026-04-22 00:50 | -30.11319 | -70.69200 | 25156 ft | 321 kts | 195° |
| 2026-04-22 00:51 | -30.13157 | -70.69379 | 25152 ft | 321 kts | 195° |
| 2026-04-22 00:51 | -30.15254 | -70.69585 | 25148 ft | 320 kts | 195° |
| 2026-04-22 00:51 | -30.17479 | -70.69806 | 25151 ft | 320 kts | 195° |
| 2026-04-22 00:51 | -30.19702 | -70.70027 | 25150 ft | 321 kts | 195° |
| 2026-04-22 00:52 | -30.21921 | -70.70245 | 25150 ft | 320 kts | 195° |
| 2026-04-22 00:52 | -30.24179 | -70.70469 | 25155 ft | 320 kts | 195° |
| 2026-04-22 00:52 | -30.26335 | -70.70685 | 25155 ft | 320 kts | 195° |
| 2026-04-22 00:52 | -30.28578 | -70.70905 | 25147 ft | 321 kts | 195° |
| 2026-04-22 00:53 | -30.30801 | -70.71125 | 25153 ft | 321 kts | 195° |
| 2026-04-22 00:53 | -30.32938 | -70.71339 | 25158 ft | 321 kts | 195° |
| 2026-04-22 00:53 | -30.35165 | -70.71560 | 25159 ft | 321 kts | 195° |
| 2026-04-22 00:53 | -30.37399 | -70.71782 | 25151 ft | 322 kts | 195° |
| 2026-04-22 00:54 | -30.39663 | -70.72004 | 25159 ft | 322 kts | 195° |
| 2026-04-22 00:54 | -30.41853 | -70.72222 | 25154 ft | 321 kts | 195° |
| 2026-04-22 00:54 | -30.43774 | -70.72414 | 25153 ft | 321 kts | 195° |
| 2026-04-22 00:54 | -30.45990 | -70.72634 | 25148 ft | 320 kts | 195° |
| 2026-04-22 00:55 | -30.48271 | -70.72861 | 25152 ft | 321 kts | 195° |
| 2026-04-22 00:55 | -30.50502 | -70.73083 | 25154 ft | 321 kts | 195° |
| 2026-04-22 00:55 | -30.55059 | -70.73260 | 25135 ft | 334 kts | 180° |
| 2026-04-22 00:56 | -30.57309 | -70.72522 | 25136 ft | 345 kts | 165° |
| 2026-04-22 00:56 | -30.59397 | -70.71114 | 25141 ft | 355 kts | 148° |
| 2026-04-22 00:56 | -30.61165 | -70.69047 | 25144 ft | 363 kts | 130° |
| 2026-04-22 00:56 | -30.62447 | -70.66486 | 25151 ft | 364 kts | 117° |
| 2026-04-22 00:57 | -30.63538 | -70.63878 | 25161 ft | 364 kts | 117° |
| 2026-04-22 00:57 | -30.64651 | -70.61234 | 25176 ft | 365 kts | 118° |
| 2026-04-22 00:57 | -30.65776 | -70.58589 | 25174 ft | 365 kts | 118° |
| 2026-04-22 00:57 | -30.66868 | -70.56020 | 25186 ft | 363 kts | 118° |
| 2026-04-22 00:58 | -30.67971 | -70.53407 | 25194 ft | 363 kts | 117° |
| 2026-04-22 00:58 | -30.69090 | -70.50747 | 25202 ft | 365 kts | 118° |
| 2026-04-22 00:58 | -30.70214 | -70.48089 | 25206 ft | 366 kts | 118° |
| 2026-04-22 00:58 | -30.71340 | -70.45428 | 25200 ft | 365 kts | 118° |
| 2026-04-22 00:59 | -30.72505 | -70.42712 | 25210 ft | 365 kts | 118° |
| 2026-04-22 00:59 | -30.73652 | -70.40084 | 25212 ft | 364 kts | 119° |
| 2026-04-22 00:59 | -30.74790 | -70.37451 | 25220 ft | 366 kts | 118° |
| 2026-04-22 00:59 | -30.75927 | -70.34792 | 25218 ft | 367 kts | 118° |
| 2026-04-22 01:00 | -30.76694 | -70.32998 | 25228 ft | 366 kts | 118° |
| 2026-04-22 01:00 | -30.77703 | -70.30656 | 25234 ft | 366 kts | 118° |
| 2026-04-22 01:00 | -30.78866 | -70.27959 | 25231 ft | 368 kts | 118° |
| 2026-04-22 01:00 | -30.80005 | -70.25304 | 25233 ft | 367 kts | 118° |
| 2026-04-22 01:01 | -30.81136 | -70.22672 | 25228 ft | 367 kts | 118° |
| 2026-04-22 01:01 | -30.82277 | -70.20016 | 25235 ft | 367 kts | 118° |
| 2026-04-22 01:01 | -30.83423 | -70.17350 | 25236 ft | 369 kts | 118° |
| 2026-04-22 01:01 | -30.84568 | -70.14668 | 25242 ft | 369 kts | 118° |
| 2026-04-22 01:02 | -30.85713 | -70.11994 | 25231 ft | 369 kts | 118° |
| 2026-04-22 01:02 | -30.86863 | -70.09316 | 25227 ft | 369 kts | 118° |
| 2026-04-22 01:02 | -30.88004 | -70.06647 | 25222 ft | 367 kts | 118° |
| 2026-04-22 01:02 | -30.89143 | -70.03980 | 25220 ft | 368 kts | 118° |
| 2026-04-22 01:03 | -30.90282 | -70.01309 | 25211 ft | 368 kts | 118° |
| 2026-04-22 01:03 | -30.91424 | -69.98635 | 25208 ft | 368 kts | 118° |
| 2026-04-22 01:03 | -30.92564 | -69.95966 | 25195 ft | 368 kts | 118° |
| 2026-04-22 01:03 | -30.93718 | -69.93257 | 25185 ft | 369 kts | 118° |
| 2026-04-22 01:04 | -30.94848 | -69.90604 | 25172 ft | 371 kts | 118° |
| 2026-04-22 01:04 | -30.95981 | -69.87942 | 25170 ft | 372 kts | 118° |
| 2026-04-22 01:04 | -30.97143 | -69.85199 | 25145 ft | 372 kts | 118° |
| 2026-04-22 01:04 | -30.98290 | -69.82505 | 25149 ft | 369 kts | 118° |
| 2026-04-22 01:05 | -30.99433 | -69.79823 | 25134 ft | 368 kts | 117° |
| 2026-04-22 01:05 | -31.00564 | -69.77154 | 25122 ft | 367 kts | 118° |
| 2026-04-22 01:05 | -31.01692 | -69.74489 | 25105 ft | 365 kts | 117° |
| 2026-04-22 01:05 | -31.02712 | -69.72081 | 25095 ft | 364 kts | 117° |
| 2026-04-22 01:06 | -31.03827 | -69.69448 | 25088 ft | 362 kts | 117° |
| 2026-04-22 01:06 | -31.04853 | -69.66769 | 25091 ft | 360 kts | 115° |
| 2026-04-22 01:06 | -31.05880 | -69.64112 | 25072 ft | 359 kts | 116° |
| 2026-04-22 01:06 | -31.06915 | -69.61475 | 25068 ft | 356 kts | 115° |
| 2026-04-22 01:07 | -31.07935 | -69.58837 | 25056 ft | 356 kts | 115° |
| 2026-04-22 01:07 | -31.08941 | -69.56205 | 25050 ft | 355 kts | 115° |
| 2026-04-22 01:07 | -31.09950 | -69.53574 | 25057 ft | 355 kts | 115° |
| 2026-04-22 01:07 | -31.10965 | -69.50944 | 25040 ft | 355 kts | 115° |
| 2026-04-22 01:08 | -31.11978 | -69.48312 | 25029 ft | 356 kts | 115° |
| 2026-04-22 01:08 | -31.12989 | -69.45676 | 25033 ft | 356 kts | 115° |
| 2026-04-22 01:08 | -31.14002 | -69.43033 | 25038 ft | 357 kts | 115° |
| 2026-04-22 01:08 | -31.15162 | -69.40490 | 25034 ft | 355 kts | 130° |
| 2026-04-22 01:09 | -31.16878 | -69.38434 | 25016 ft | 349 kts | 146° |
| 2026-04-22 01:09 | -31.18783 | -69.36643 | 25038 ft | 348 kts | 146° |
| 2026-04-22 01:09 | -31.20594 | -69.34728 | 25023 ft | 352 kts | 140° |
| 2026-04-22 01:09 | -31.22260 | -69.32638 | 25024 ft | 350 kts | 136° |
| 2026-04-22 01:10 | -31.23934 | -69.30571 | 25031 ft | 350 kts | 140° |
| 2026-04-22 01:10 | -31.25678 | -69.28593 | 25031 ft | 350 kts | 141° |
| 2026-04-22 01:10 | -31.27435 | -69.26601 | 25038 ft | 352 kts | 140° |
| 2026-04-22 01:10 | -31.29165 | -69.24557 | 25037 ft | 354 kts | 139° |
| 2026-04-22 01:11 | -31.30899 | -69.22495 | 25047 ft | 354 kts | 140° |
| 2026-04-22 01:11 | -31.32646 | -69.20457 | 25043 ft | 355 kts | 140° |
| 2026-04-22 01:11 | -31.34398 | -69.18424 | 25048 ft | 355 kts | 140° |
| 2026-04-22 01:11 | -31.36142 | -69.16379 | 25050 ft | 354 kts | 139° |
| 2026-04-22 01:12 | -31.37876 | -69.14331 | 25052 ft | 354 kts | 139° |
| 2026-04-22 01:12 | -31.39615 | -69.12290 | 25060 ft | 354 kts | 140° |
| 2026-04-22 01:12 | -31.41356 | -69.10256 | 25069 ft | 355 kts | 140° |
| 2026-04-22 01:12 | -31.43096 | -69.08211 | 25058 ft | 352 kts | 139° |
| 2026-04-22 01:13 | -31.44810 | -69.06192 | 25065 ft | 349 kts | 139° |
| 2026-04-22 01:13 | -31.46529 | -69.04172 | 25075 ft | 348 kts | 140° |
| 2026-04-22 01:13 | -31.48246 | -69.02151 | 25075 ft | 350 kts | 139° |
| 2026-04-22 01:13 | -31.49962 | -69.00133 | 25074 ft | 346 kts | 139° |
| 2026-04-22 01:14 | -31.51664 | -68.98128 | 25077 ft | 347 kts | 139° |
| 2026-04-22 01:14 | -31.53367 | -68.96118 | 25081 ft | 347 kts | 139° |
| 2026-04-22 01:14 | -31.55089 | -68.94094 | 25093 ft | 346 kts | 140° |
| 2026-04-22 01:14 | -31.56794 | -68.92083 | 25090 ft | 349 kts | 139° |
| 2026-04-22 01:15 | -31.58506 | -68.90058 | 25095 ft | 351 kts | 139° |
| 2026-04-22 01:15 | -31.60226 | -68.88025 | 25092 ft | 351 kts | 140° |
| 2026-04-22 01:15 | -31.61947 | -68.85996 | 25096 ft | 351 kts | 139° |
| 2026-04-22 01:15 | -31.63675 | -68.83953 | 25098 ft | 352 kts | 139° |
| 2026-04-22 01:16 | -31.65403 | -68.81907 | 25094 ft | 352 kts | 139° |
| 2026-04-22 01:16 | -31.67122 | -68.79873 | 25098 ft | 353 kts | 139° |
| 2026-04-22 01:16 | -31.68842 | -68.77831 | 25099 ft | 351 kts | 139° |
| 2026-04-22 01:16 | -31.70557 | -68.75802 | 25100 ft | 351 kts | 140° |
| 2026-04-22 01:17 | -31.72310 | -68.73729 | 25103 ft | 352 kts | 139° |
| 2026-04-22 01:17 | -31.74034 | -68.71681 | 25111 ft | 352 kts | 139° |
| 2026-04-22 01:17 | -31.75205 | -68.70290 | 25108 ft | 353 kts | 139° |
| 2026-04-22 01:17 | -31.76969 | -68.68195 | 25113 ft | 353 kts | 139° |
| 2026-04-22 01:18 | -31.78647 | -68.66202 | 25110 ft | 354 kts | 139° |
| 2026-04-22 01:18 | -31.80398 | -68.64116 | 25115 ft | 351 kts | 139° |
| 2026-04-22 01:18 | -31.82115 | -68.62076 | 25122 ft | 351 kts | 139° |
| 2026-04-22 01:18 | -31.83834 | -68.60034 | 25126 ft | 351 kts | 139° |
| 2026-04-22 01:19 | -31.85551 | -68.57987 | 25111 ft | 352 kts | 139° |
| 2026-04-22 01:19 | -31.87297 | -68.55919 | 24678 ft | 359 kts | 140° |
| 2026-04-22 01:19 | -31.89066 | -68.53836 | 24222 ft | 360 kts | 139° |
| 2026-04-22 01:19 | -31.90823 | -68.51727 | 23771 ft | 360 kts | 139° |
| 2026-04-22 01:20 | -31.92569 | -68.49621 | 23258 ft | 358 kts | 139° |
| 2026-04-22 01:20 | -31.94318 | -68.47534 | 22727 ft | 356 kts | 139° |
| 2026-04-22 01:20 | -31.96057 | -68.45466 | 22209 ft | 353 kts | 139° |
| 2026-04-22 01:20 | -31.97239 | -68.44053 | 21856 ft | 351 kts | 139° |
| 2026-04-22 01:21 | -31.98967 | -68.41981 | 21352 ft | 348 kts | 139° |
| 2026-04-22 01:21 | -32.00562 | -68.40070 | 20897 ft | 344 kts | 139° |
| 2026-04-22 01:21 | -32.02272 | -68.38063 | 20431 ft | 339 kts | 143° |
| 2026-04-22 01:21 | -32.04210 | -68.36506 | 19984 ft | 328 kts | 158° |
| 2026-04-22 01:22 | -32.06286 | -68.35517 | 19536 ft | 317 kts | 171° |
| 2026-04-22 01:22 | -32.08424 | -68.35069 | 19101 ft | 307 kts | 183° |
| 2026-04-22 01:22 | -32.10528 | -68.35135 | 18674 ft | 296 kts | 195° |
| 2026-04-22 01:22 | -32.12558 | -68.35648 | 18257 ft | 288 kts | 202° |
| 2026-04-22 01:23 | -32.14492 | -68.36210 | 17835 ft | 285 kts | 201° |
| 2026-04-22 01:23 | -32.16416 | -68.36746 | 17414 ft | 282 kts | 201° |
| 2026-04-22 01:23 | -32.18194 | -68.37432 | 17009 ft | 271 kts | 214° |
| 2026-04-22 01:23 | -32.19743 | -68.38647 | 16542 ft | 266 kts | 223° |
| 2026-04-22 01:24 | -32.21271 | -68.39884 | 16070 ft | 268 kts | 218° |
| 2026-04-22 01:24 | -32.22903 | -68.40958 | 15607 ft | 269 kts | 214° |
| 2026-04-22 01:24 | -32.24562 | -68.41976 | 15172 ft | 267 kts | 214° |
| 2026-04-22 01:24 | -32.26179 | -68.43027 | 14792 ft | 263 kts | 216° |
| 2026-04-22 01:25 | -32.27767 | -68.44085 | 14424 ft | 261 kts | 216° |
| 2026-04-22 01:25 | -32.29347 | -68.45123 | 14056 ft | 259 kts | 215° |
| 2026-04-22 01:25 | -32.30923 | -68.46153 | 13658 ft | 258 kts | 215° |
| 2026-04-22 01:25 | -32.32485 | -68.47176 | 13245 ft | 256 kts | 215° |
| 2026-04-22 01:26 | -32.34038 | -68.48197 | 12843 ft | 254 kts | 214° |
| 2026-04-22 01:26 | -32.35601 | -68.49224 | 12437 ft | 253 kts | 214° |
| 2026-04-22 01:26 | -32.37135 | -68.50231 | 12042 ft | 251 kts | 214° |
| 2026-04-22 01:26 | -32.38658 | -68.51231 | 11652 ft | 250 kts | 214° |
| 2026-04-22 01:27 | -32.40169 | -68.52224 | 11266 ft | 248 kts | 214° |
| 2026-04-22 01:27 | -32.41678 | -68.53216 | 10886 ft | 246 kts | 213° |
| 2026-04-22 01:27 | -32.43161 | -68.54193 | 10509 ft | 243 kts | 213° |
| 2026-04-22 01:27 | -32.44633 | -68.55159 | 10130 ft | 241 kts | 213° |
| 2026-04-22 01:28 | -32.46096 | -68.56122 | 9734 ft | 239 kts | 213° |
| 2026-04-22 01:28 | -32.47237 | -68.56873 | 9408 ft | 238 kts | 213° |
| 2026-04-22 01:28 | -32.48629 | -68.57791 | 9016 ft | 236 kts | 212° |
| 2026-04-22 01:28 | -32.50078 | -68.58746 | 8611 ft | 235 kts | 212° |
| 2026-04-22 01:29 | -32.51523 | -68.59698 | 8212 ft | 234 kts | 212° |
| 2026-04-22 01:29 | -32.52931 | -68.60626 | 7822 ft | 233 kts | 211° |
| 2026-04-22 01:29 | -32.54366 | -68.61573 | 7429 ft | 233 kts | 211° |
| 2026-04-22 01:29 | -32.55779 | -68.62505 | 7046 ft | 232 kts | 211° |
| 2026-04-22 01:30 | -32.57162 | -68.63417 | 6677 ft | 231 kts | 210° |
| 2026-04-22 01:30 | -32.58550 | -68.64336 | 6289 ft | 230 kts | 210° |
| 2026-04-22 01:30 | -32.59874 | -68.65374 | 5902 ft | 228 kts | 224° |
| 2026-04-22 01:30 | -32.60814 | -68.66840 | 5689 ft | 219 kts | 243° |
| 2026-04-22 01:31 | -32.61412 | -68.68471 | 5513 ft | 213 kts | 249° |
| 2026-04-22 01:31 | -32.61996 | -68.70072 | 5335 ft | 210 kts | 248° |
| 2026-04-22 01:31 | -32.62576 | -68.71659 | 5162 ft | 209 kts | 248° |
| 2026-04-22 01:31 | -32.63140 | -68.73239 | 4992 ft | 207 kts | 249° |
| 2026-04-22 01:32 | -32.63695 | -68.74797 | 4817 ft | 201 kts | 249° |
| 2026-04-22 01:32 | -32.64233 | -68.76302 | 4627 ft | 195 kts | 248° |
| 2026-04-22 01:32 | -32.64901 | -68.77676 | 4451 ft | 192 kts | 229° |
| 2026-04-22 01:32 | -32.65965 | -68.78639 | 4276 ft | 190 kts | 207° |
| 2026-04-22 01:33 | -32.67224 | -68.79057 | 4129 ft | 187 kts | 185° |
| 2026-04-22 01:33 | -32.68508 | -68.79069 | 4028 ft | 182 kts | 180° |
| 2026-04-22 01:33 | -32.69765 | -68.79091 | 3924 ft | 179 kts | 181° |
| 2026-04-22 01:33 | -32.70997 | -68.79109 | 3906 ft | 174 kts | 181° |
| 2026-04-22 01:34 | -32.72199 | -68.79125 | 3903 ft | 171 kts | 181° |
| 2026-04-22 01:34 | -32.73384 | -68.79143 | 3900 ft | 169 kts | 181° |
| 2026-04-22 01:34 | -32.74544 | -68.79163 | 3806 ft | 168 kts | 181° |
| 2026-04-22 01:34 | -32.74590 | -68.79164 | 3801 ft | 167 kts | 181° |
| 2026-04-22 01:35 | -32.75735 | -68.79186 | 3653 ft | 152 kts | 181° |
| 2026-04-22 01:35 | -32.76759 | -68.79211 | 3507 ft | 142 kts | 181° |
| 2026-04-22 01:35 | -32.77746 | -68.79209 | 3261 ft | 143 kts | 177° |
| 2026-04-22 01:35 | -32.78741 | -68.79171 | 2982 ft | 138 kts | 180° |
| 2026-04-22 01:36 | -32.79651 | -68.79211 | 2862 ft | 125 kts | 182° |
| 2026-04-22 01:36 | -32.80508 | -68.79244 | 2713 ft | 117 kts | 179° |
| 2026-04-22 01:36 | -32.81228 | -68.79252 | 2559 ft | 95 kts | 182° |
| 2026-04-22 01:36 | -32.81875 | -68.79262 | 2418 ft | 94 kts | 178° |
| 2026-04-22 01:37 | -32.82444 | -68.79279 | 2394 ft | 74 kts | 180° |
| 2026-04-22 01:37 | -32.82834 | -68.79283 | 2393 ft | 38 kts | 180° |
| 2026-04-22 01:37 | -32.83008 | -68.79286 | 2392 ft | 16 kts | 182° |
| 2026-04-22 01:37 | -32.83111 | -68.79289 | 2391 ft | 11 kts | 179° |
| 2026-04-22 01:38 | -32.83149 | -68.79334 | 2391 ft | 13 kts | 251° |
| 2026-04-22 01:38 | -32.83198 | -68.79460 | 2389 ft | 19 kts | 225° |
| 2026-04-22 01:38 | -32.83231 | -68.79502 | 2391 ft | 4 kts | 246° |
| 2026-04-22 01:38 | -32.83153 | -68.79513 | 2390 ft | 19 kts | 360° |
| 2026-04-22 01:39 | -32.83021 | -68.79522 | 2393 ft | 14 kts | 310° |
| 2026-04-22 01:39 | -32.82963 | -68.79587 | 2391 ft | 9 kts | 320° |
| 2026-04-22 01:39 | -32.82919 | -68.79619 | 2393 ft | 9 kts | 0° |
| 2026-04-22 01:39 | -32.82888 | -68.79640 | 2393 ft | 6 kts | 330° |
| 2026-04-22 01:40 | -32.82875 | -68.79648 | 2392 ft | 2 kts | 313° |
| 2026-04-22 01:40 | -32.82872 | -68.79655 | 2392 ft | 0 kts | 301° |